Airfield :
LOGIN :

Register | Disclaimer

   EN    FR    IT 

 










Legend :    VFR   Marginal VFR   IFR   Intensive IFR   Very Intensive IFR
Visi :
Ceiling :
>= 8 km
>= 3000ft
5 to 8 km
1000 to 3000 ft
1500m to 5 km
500 to 1000 ft
800 to 1500m
200 to 500 ft
< 800m
< 200 ft
Symbols :   Thunderstorms  Fog  Heavy snow  Heavy precipitations  Wind > 20 kt
SIGMETs :     Misc.  Thunderstorms  Icing  Turbulence  Mountain Waves  Volcanic Ashes






- Airport Elevation : 15 ft
- IATA code : FCO


LIRF - Roma Leonardo da Vinci Fiumicino

CURRENT METAR :
  • 310650Z 05007KT CAVOK 17/12 Q1015 NOSIG

EXPIRED METARs :
  • 310620Z 05006KT CAVOK 16/12 Q1015 NOSIG
  • 310550Z 05004KT 360V060 CAVOK 15/13 Q1015 NOSIG
  • 310520Z 05004KT CAVOK 13/12 Q1015 NOSIG
  • 310450Z 03004KT CAVOK 12/11 Q1015 NOSIG
  • 310420Z 01003KT CAVOK 11/10 Q1015 NOSIG

TAF TAF LIRF
Valid from the 31 at 06:00 until the 01 at 12:00 UTC


310500Z 3106/0112 VRB05KT 9999 FEW040
BECMG 3109/3111 26014KT
BECMG 3120/3122 34007KT
BECMG 0108/0110 26012KT



MET'MAP, your aeronautical weather chart ! - Copyright ORBIFLY December 2007 - Disclaimer

ORBIFLY MET'MAP TEAM :

Programming & Development : Alexandra Zaïnal
Concept & original design : Baudouin d'Aumeries
Assistance for programming : Marc-Olivier Méhu
Technical & hardware support : Manuel Goepfert

Contact : metmap@orbifly.com




SOURCES & CREDITS :

   NOAA